createdAt,value
2017-04-22T00:00:17.036Z,0
2017-04-22T00:00:58.010Z,0
2017-04-22T00:01:38.961Z,0
2017-04-22T00:02:19.872Z,0
2017-04-22T00:03:00.798Z,0
2017-04-22T00:06:39.073Z,0
2017-04-22T00:07:20.026Z,0
2017-04-22T00:08:00.965Z,0
2017-04-22T00:10:21.336Z,0
2017-04-22T00:11:02.246Z,0
2017-04-22T00:11:43.142Z,0
2017-04-22T00:13:57.354Z,0
2017-04-22T00:14:38.311Z,0
2017-04-22T00:15:19.279Z,0
2017-04-22T00:16:00.172Z,0
2017-04-22T00:16:41.128Z,0
2017-04-22T00:17:22.096Z,0
2017-04-22T00:18:03.019Z,0
2017-04-22T00:18:44.015Z,0
2017-04-22T00:19:24.891Z,0
2017-04-22T00:20:05.807Z,0
2017-04-22T00:20:46.714Z,0
2017-04-22T00:21:27.674Z,0
2017-04-22T00:22:08.647Z,0
2017-04-22T00:22:49.607Z,0
2017-04-22T00:23:30.520Z,0
2017-04-22T00:24:11.412Z,0
2017-04-22T00:24:52.399Z,0
2017-04-22T00:25:33.378Z,0
2017-04-22T00:26:14.379Z,0
2017-04-22T00:26:55.339Z,0
2017-04-22T00:29:15.702Z,0
2017-04-22T00:29:56.681Z,0
2017-04-22T00:30:37.630Z,0
2017-04-22T00:31:18.555Z,0
2017-04-22T00:31:59.496Z,0
2017-04-22T00:32:40.490Z,0
2017-04-22T00:34:34.207Z,0
2017-04-22T00:35:15.200Z,0
2017-04-22T00:35:56.142Z,0
2017-04-22T00:36:37.144Z,0
2017-04-22T00:37:18.100Z,0
2017-04-22T00:37:58.986Z,0
2017-04-22T00:38:39.928Z,0
2017-04-22T00:39:20.827Z,0
2017-04-22T00:40:01.770Z,0
2017-04-22T00:40:42.688Z,0
2017-04-22T00:41:23.653Z,0
2017-04-22T00:42:04.589Z,0
2017-04-22T00:42:45.555Z,0
2017-04-22T00:43:26.518Z,0
2017-04-22T00:44:07.448Z,0
2017-04-22T00:44:48.456Z,0
2017-04-22T00:45:29.366Z,0
2017-04-22T00:46:10.371Z,0
2017-04-22T00:46:51.334Z,0
2017-04-22T00:47:32.269Z,0
2017-04-22T00:48:13.207Z,0
2017-04-22T00:48:54.111Z,0
2017-04-22T00:49:35.091Z,0
2017-04-22T00:50:16.129Z,0
2017-04-22T00:50:57.050Z,0
2017-04-22T00:51:37.939Z,0
2017-04-22T00:52:18.972Z,0
2017-04-22T00:52:59.874Z,0
2017-04-22T00:53:40.876Z,0
2017-04-22T00:54:21.801Z,0
2017-04-22T00:55:02.728Z,0
2017-04-22T00:55:43.617Z,0
2017-04-22T00:56:24.560Z,0
2017-04-22T00:57:05.520Z,0
2017-04-22T00:57:46.519Z,0
2017-04-22T00:59:41.116Z,0
2017-04-22T01:00:22.130Z,0
2017-04-22T01:01:03.053Z,0
2017-04-22T01:01:44.020Z,0
2017-04-22T01:02:24.965Z,0
2017-04-22T01:04:40.217Z,0
2017-04-22T01:05:21.130Z,0
2017-04-22T01:06:02.067Z,0
2017-04-22T01:06:43.010Z,0
2017-04-22T01:07:23.991Z,0
2017-04-22T01:08:04.891Z,0
2017-04-22T01:08:45.816Z,0
2017-04-22T01:09:26.795Z,0
2017-04-22T01:10:07.757Z,0
2017-04-22T01:10:48.717Z,0
2017-04-22T01:11:29.645Z,0
2017-04-22T01:12:10.587Z,0
2017-04-22T01:12:51.532Z,0
2017-04-22T01:13:32.469Z,0
2017-04-22T01:14:13.399Z,0
2017-04-22T01:14:54.273Z,0
2017-04-22T01:15:35.258Z,0
2017-04-22T01:16:16.184Z,0
2017-04-22T01:16:57.072Z,0
2017-04-22T01:17:38.025Z,0
2017-04-22T01:18:18.978Z,0
2017-04-22T01:20:17.843Z,0
2017-04-22T01:20:58.728Z,0
2017-04-22T01:21:39.667Z,0
2017-04-22T01:22:20.673Z,0
2017-04-22T01:23:01.674Z,0
2017-04-22T01:23:42.631Z,0
2017-04-22T01:24:23.563Z,0
2017-04-22T01:25:04.454Z,0
2017-04-22T01:25:45.435Z,0
2017-04-22T01:26:26.374Z,0
2017-04-22T01:27:07.295Z,0
2017-04-22T01:27:48.268Z,0
2017-04-22T01:28:29.251Z,0
2017-04-22T01:29:10.248Z,0
2017-04-22T01:29:51.217Z,0
2017-04-22T01:30:32.122Z,0
2017-04-22T01:31:13.016Z,0
2017-04-22T01:31:53.986Z,0
2017-04-22T01:32:34.900Z,0
2017-04-22T01:33:15.798Z,0
2017-04-22T01:33:56.793Z,0
2017-04-22T01:34:37.662Z,0
2017-04-22T01:35:18.689Z,0
2017-04-22T01:35:59.641Z,0
2017-04-22T01:36:40.577Z,0
2017-04-22T01:37:21.559Z,0
2017-04-22T01:38:02.510Z,0
2017-04-22T01:38:43.460Z,0
2017-04-22T01:39:24.397Z,0
2017-04-22T01:40:05.366Z,0
2017-04-22T01:40:46.270Z,0
2017-04-22T01:41:27.205Z,0
2017-04-22T01:42:08.196Z,0
2017-04-22T01:42:49.159Z,0
2017-04-22T01:43:30.056Z,0
2017-04-22T01:44:11.013Z,0
2017-04-22T01:44:51.980Z,0
2017-04-22T01:45:32.915Z,0
2017-04-22T01:46:13.844Z,0
2017-04-22T01:46:54.809Z,0
2017-04-22T01:47:35.751Z,0
2017-04-22T01:48:16.687Z,0
2017-04-22T01:48:57.630Z,0
2017-04-22T01:51:06.661Z,0
2017-04-22T01:51:47.609Z,0
2017-04-22T01:52:28.511Z,0
2017-04-22T01:53:09.420Z,0
2017-04-22T01:53:50.409Z,0
2017-04-22T01:55:59.543Z,0
2017-04-22T01:57:53.203Z,0
2017-04-22T01:58:34.152Z,0
2017-04-22T01:59:15.127Z,0
2017-04-22T01:59:56.154Z,0
2017-04-22T02:00:37.101Z,0
2017-04-22T02:01:18.050Z,0
2017-04-22T02:01:58.996Z,0
2017-04-22T02:02:39.898Z,0
2017-04-22T02:04:48.941Z,0
2017-04-22T02:05:29.850Z,0
2017-04-22T02:06:10.805Z,0
2017-04-22T02:06:51.822Z,0
2017-04-22T02:07:32.748Z,0
2017-04-22T02:08:13.670Z,0
2017-04-22T02:08:54.661Z,0
2017-04-22T02:09:35.591Z,0
2017-04-22T02:14:06.081Z,0
2017-04-22T02:14:47.004Z,0
2017-04-22T02:15:27.928Z,0
2017-04-22T02:16:08.947Z,0
2017-04-22T02:16:49.924Z,0
2017-04-22T02:17:30.905Z,0
2017-04-22T02:18:11.854Z,0
2017-04-22T02:20:31.154Z,0
2017-04-22T02:21:12.036Z,0
2017-04-22T02:21:52.914Z,0
2017-04-22T02:22:33.800Z,0
2017-04-22T02:23:14.662Z,0
2017-04-22T02:23:55.535Z,0
2017-04-22T02:24:36.423Z,0
2017-04-22T02:25:17.298Z,0
2017-04-22T02:25:58.225Z,0
2017-04-22T02:26:39.108Z,0
2017-04-22T02:27:19.977Z,0
2017-04-22T02:28:00.860Z,0
2017-04-22T02:28:41.729Z,0
2017-04-22T02:29:22.613Z,0
2017-04-22T02:30:03.463Z,0
2017-04-22T02:30:44.338Z,0
2017-04-22T02:31:25.207Z,0
2017-04-22T02:32:06.082Z,0
2017-04-22T02:32:46.978Z,0
2017-04-22T02:33:27.856Z,0
2017-04-22T02:34:08.729Z,0
2017-04-22T02:34:49.603Z,0
2017-04-22T02:35:30.469Z,0
2017-04-22T02:36:11.821Z,0
2017-04-22T02:36:52.689Z,0
2017-04-22T02:37:33.568Z,0
2017-04-22T02:38:14.436Z,0
2017-04-22T02:38:55.310Z,0
2017-04-22T02:39:36.189Z,0
2017-04-22T02:40:17.067Z,0
2017-04-22T02:40:57.939Z,0
2017-04-22T02:41:38.816Z,0
2017-04-22T02:42:19.690Z,0
2017-04-22T02:43:00.570Z,0
2017-04-22T02:43:41.545Z,0
2017-04-22T02:44:22.489Z,0
2017-04-22T02:45:03.361Z,0
2017-04-22T02:45:44.240Z,0
2017-04-22T02:46:25.129Z,0
2017-04-22T02:47:05.997Z,0
2017-04-22T02:47:46.870Z,0
2017-04-22T02:48:27.768Z,0
2017-04-22T02:49:08.666Z,0
2017-04-22T02:49:49.524Z,0
2017-04-22T02:50:30.392Z,0
2017-04-22T02:52:47.430Z,0
2017-04-22T02:53:28.315Z,0
2017-04-22T02:54:09.195Z,0
2017-04-22T02:54:51.831Z,0
2017-04-22T02:55:32.676Z,0
2017-04-22T02:56:13.594Z,0
2017-04-22T02:56:54.466Z,0
2017-04-22T02:57:37.298Z,0
2017-04-22T02:58:19.961Z,0
2017-04-22T02:59:00.828Z,0
2017-04-22T02:59:41.825Z,0
2017-04-22T03:00:24.798Z,0
2017-04-22T03:01:08.344Z,0
2017-04-22T03:01:50.939Z,0
2017-04-22T03:02:31.835Z,0
2017-04-22T03:03:12.718Z,0
2017-04-22T03:03:53.812Z,0
2017-04-22T03:04:37.458Z,0
2017-04-22T03:05:18.336Z,0
2017-04-22T03:05:59.207Z,0
2017-04-22T03:06:40.075Z,0
2017-04-22T03:07:20.957Z,0
2017-04-22T03:08:01.838Z,0
2017-04-22T03:08:42.747Z,0
2017-04-22T03:09:23.685Z,0
2017-04-22T03:10:04.587Z,0
2017-04-22T03:10:45.488Z,0
2017-04-22T03:11:26.362Z,0
2017-04-22T03:12:07.240Z,0
2017-04-22T03:12:48.125Z,0
2017-04-22T03:13:29.001Z,0
2017-04-22T03:14:09.878Z,0
2017-04-22T03:14:50.759Z,0
2017-04-22T03:15:31.661Z,0
2017-04-22T03:16:12.540Z,0
2017-04-22T03:16:53.425Z,0
2017-04-22T03:17:34.289Z,0
2017-04-22T03:18:15.172Z,0
2017-04-22T03:18:56.035Z,0
2017-04-22T03:19:36.914Z,0
2017-04-22T03:20:17.799Z,0
2017-04-22T03:20:58.681Z,0
2017-04-22T03:21:39.566Z,0
2017-04-22T03:22:20.453Z,0
2017-04-22T03:23:01.349Z,0
2017-04-22T03:23:42.223Z,0
2017-04-22T03:24:23.104Z,0
2017-04-22T03:25:03.983Z,0
2017-04-22T03:25:44.866Z,0
2017-04-22T03:26:25.741Z,0
2017-04-22T03:27:06.612Z,0
2017-04-22T03:27:47.485Z,0
2017-04-22T03:28:28.361Z,0
2017-04-22T03:29:09.230Z,0
2017-04-22T03:29:50.111Z,0
2017-04-22T03:30:30.981Z,0
2017-04-22T03:31:11.932Z,0
2017-04-22T03:31:52.821Z,0
2017-04-22T03:32:33.679Z,0
2017-04-22T03:33:14.542Z,0
2017-04-22T03:33:55.430Z,0
2017-04-22T03:34:36.310Z,0
2017-04-22T03:35:17.183Z,0
2017-04-22T03:35:58.073Z,0
2017-04-22T03:36:38.929Z,0
2017-04-22T03:37:19.812Z,0
2017-04-22T03:38:00.678Z,0
2017-04-22T03:38:41.570Z,0
2017-04-22T03:39:22.534Z,0
2017-04-22T03:40:05.322Z,0
2017-04-22T03:40:46.192Z,0
2017-04-22T03:41:27.422Z,0
2017-04-22T03:42:07.987Z,0
2017-04-22T03:42:48.880Z,0
2017-04-22T03:43:29.777Z,0
2017-04-22T03:44:10.664Z,0
2017-04-22T03:44:51.550Z,0
2017-04-22T03:45:32.432Z,0
2017-04-22T03:46:13.323Z,0
2017-04-22T03:46:59.456Z,0
2017-04-22T03:47:40.328Z,0
2017-04-22T03:48:21.212Z,0
2017-04-22T03:49:02.080Z,0
2017-04-22T03:49:42.981Z,0
2017-04-22T03:50:23.851Z,0
2017-04-22T03:51:04.726Z,5
2017-04-22T03:51:45.592Z,5
2017-04-22T03:52:26.472Z,5
2017-04-22T03:53:07.331Z,5
2017-04-22T03:53:48.214Z,5
2017-04-22T03:54:29.089Z,5
2017-04-22T03:55:09.973Z,5
2017-04-22T03:55:50.890Z,5
2017-04-22T03:56:31.766Z,5
2017-04-22T03:57:12.649Z,5
2017-04-22T03:57:53.515Z,5
2017-04-22T03:58:34.396Z,5
2017-04-22T03:59:15.283Z,10
2017-04-22T03:59:56.156Z,10
2017-04-22T04:00:37.054Z,10
2017-04-22T04:01:17.907Z,10
2017-04-22T04:01:58.790Z,10
2017-04-22T04:02:39.673Z,10
2017-04-22T04:03:20.535Z,10
2017-04-22T04:04:01.417Z,10
2017-04-22T04:04:42.300Z,10
2017-04-22T04:05:23.183Z,10
2017-04-22T04:06:04.047Z,10
2017-04-22T04:06:44.926Z,10
2017-04-22T04:07:25.808Z,10
2017-04-22T04:08:06.692Z,10
2017-04-22T04:08:47.568Z,15
2017-04-22T04:09:28.439Z,15
2017-04-22T04:10:09.318Z,15
2017-04-22T04:10:50.192Z,15
2017-04-22T04:11:31.079Z,15
2017-04-22T04:12:11.961Z,15
2017-04-22T04:12:52.835Z,15
2017-04-22T04:13:33.705Z,15
2017-04-22T04:14:14.594Z,20
2017-04-22T04:14:55.468Z,20
2017-04-22T04:15:36.333Z,20
2017-04-22T04:16:17.211Z,20
2017-04-22T04:16:58.094Z,20
2017-04-22T04:17:38.956Z,20
2017-04-22T04:18:19.837Z,25
2017-04-22T04:19:00.713Z,25
2017-04-22T04:19:41.580Z,25
2017-04-22T04:20:22.451Z,25
2017-04-22T04:21:03.333Z,25
2017-04-22T04:21:44.205Z,25
2017-04-22T04:22:25.088Z,25
2017-04-22T04:23:05.965Z,25
2017-04-22T04:23:46.835Z,30
2017-04-22T04:24:27.715Z,30
2017-04-22T04:25:08.593Z,30
2017-04-22T04:25:49.481Z,30
2017-04-22T04:26:30.370Z,30
2017-04-22T04:27:11.244Z,30
2017-04-22T04:27:52.124Z,30
2017-04-22T04:28:32.982Z,35
2017-04-22T04:29:13.865Z,35
2017-04-22T04:29:54.729Z,35
2017-04-22T04:30:35.611Z,35
2017-04-22T04:31:18.444Z,40
2017-04-22T04:31:59.351Z,40
2017-04-22T04:32:40.233Z,40
2017-04-22T04:33:21.114Z,40
2017-04-22T04:34:01.979Z,40
2017-04-22T04:34:42.853Z,45
2017-04-22T04:35:23.736Z,45
2017-04-22T04:36:04.628Z,45
2017-04-22T04:36:45.508Z,45
2017-04-22T04:37:26.375Z,45
2017-04-22T04:38:07.251Z,50
2017-04-22T04:38:48.132Z,50
2017-04-22T04:39:29.011Z,50
2017-04-22T04:40:09.892Z,50
2017-04-22T04:40:50.761Z,55
2017-04-22T04:41:31.642Z,55
2017-04-22T04:42:12.504Z,55
2017-04-22T04:42:53.388Z,55
2017-04-22T04:43:34.285Z,55
2017-04-22T04:44:15.157Z,55
2017-04-22T04:44:57.586Z,55
2017-04-22T04:45:38.460Z,55
2017-04-22T04:46:19.382Z,55
2017-04-22T04:47:00.226Z,60
2017-04-22T04:47:41.098Z,60
2017-04-22T04:48:21.965Z,60
2017-04-22T04:49:02.847Z,60
2017-04-22T04:49:43.737Z,65
2017-04-22T04:50:24.610Z,65
2017-04-22T04:51:05.486Z,65
2017-04-22T04:51:46.353Z,65
2017-04-22T04:52:27.233Z,65
2017-04-22T04:53:08.117Z,65
2017-04-22T04:53:48.998Z,65
2017-04-22T04:54:29.909Z,70
2017-04-22T04:55:10.793Z,65
2017-04-22T04:55:51.676Z,70
2017-04-22T04:56:32.553Z,70
2017-04-22T04:57:13.425Z,75
2017-04-22T04:57:54.302Z,75
2017-04-22T04:58:35.183Z,75
2017-04-22T04:59:16.061Z,80
2017-04-22T04:59:56.922Z,80
2017-04-22T05:00:37.805Z,80
2017-04-22T05:01:18.669Z,80
2017-04-22T05:01:59.544Z,80
2017-04-22T05:02:40.409Z,80
2017-04-22T05:03:21.376Z,80
2017-04-22T05:04:02.238Z,80
2017-04-22T05:04:43.119Z,80
2017-04-22T05:05:23.993Z,80
2017-04-22T05:06:04.860Z,80
2017-04-22T05:06:45.732Z,80
2017-04-22T05:07:26.590Z,80
2017-04-22T05:08:07.473Z,80
2017-04-22T05:08:48.363Z,85
2017-04-22T05:09:29.238Z,85
2017-04-22T05:10:10.104Z,85
2017-04-22T05:10:50.980Z,85
2017-04-22T05:11:31.892Z,85
2017-04-22T05:12:12.779Z,90
2017-04-22T05:12:53.648Z,90
2017-04-22T05:13:34.519Z,90
2017-04-22T05:14:15.381Z,95
2017-04-22T05:14:56.263Z,95
2017-04-22T05:15:37.146Z,95
2017-04-22T05:16:18.026Z,100
2017-04-22T05:16:58.898Z,100
2017-04-22T05:17:39.768Z,105
2017-04-22T05:18:20.639Z,105
2017-04-22T05:19:01.513Z,110
2017-04-22T05:19:42.394Z,110
2017-04-22T05:20:23.267Z,110
2017-04-22T05:21:04.146Z,110
2017-04-22T05:21:45.027Z,115
2017-04-22T05:22:25.898Z,115
2017-04-22T05:23:06.782Z,115
2017-04-22T05:23:47.662Z,120
2017-04-22T05:24:28.590Z,115
2017-04-22T05:25:09.441Z,120
2017-04-22T05:25:50.337Z,120
2017-04-22T05:26:31.206Z,120
2017-04-22T05:27:12.075Z,120
2017-04-22T05:27:52.935Z,125
2017-04-22T05:28:33.821Z,125
2017-04-22T05:29:14.710Z,130
2017-04-22T05:29:55.568Z,135
2017-04-22T05:30:36.451Z,135
2017-04-22T05:31:17.357Z,135
2017-04-22T05:31:58.309Z,135
2017-04-22T05:32:39.268Z,135
2017-04-22T05:33:20.112Z,135
2017-04-22T05:34:00.998Z,140
2017-04-22T05:34:41.875Z,140
2017-04-22T05:35:22.767Z,140
2017-04-22T05:36:03.640Z,140
2017-04-22T05:36:44.505Z,145
2017-04-22T05:37:25.384Z,145
2017-04-22T05:38:06.267Z,145
2017-04-22T05:38:47.162Z,145
2017-04-22T05:39:28.032Z,150
2017-04-22T05:40:08.895Z,145
2017-04-22T05:40:49.775Z,150
2017-04-22T05:41:30.641Z,155
2017-04-22T05:42:11.521Z,185
2017-04-22T05:42:52.403Z,160
2017-04-22T05:43:33.277Z,145
2017-04-22T05:44:14.143Z,150
2017-04-22T05:44:55.050Z,185
2017-04-22T05:45:35.934Z,225
2017-04-22T05:46:16.812Z,210
2017-04-22T05:46:57.695Z,195
2017-04-22T05:47:38.566Z,195
2017-04-22T05:48:19.502Z,195
2017-04-22T05:49:00.388Z,190
2017-04-22T05:49:41.259Z,195
2017-04-22T05:50:22.146Z,175
2017-04-22T05:51:03.034Z,150
2017-04-22T05:51:43.920Z,150
2017-04-22T05:52:24.805Z,160
2017-04-22T05:53:05.686Z,140
2017-04-22T05:53:46.540Z,125
2017-04-22T05:54:27.415Z,125
2017-04-22T05:55:08.294Z,140
2017-04-22T05:55:49.175Z,140
2017-04-22T05:56:30.147Z,135
2017-04-22T05:57:11.108Z,150
2017-04-22T05:59:20.165Z,170
2017-04-22T06:00:01.064Z,180
2017-04-22T06:00:42.015Z,180
2017-04-22T06:01:23.024Z,205
2017-04-22T06:02:03.946Z,235
2017-04-22T06:02:44.879Z,195
2017-04-22T06:03:25.863Z,160
2017-04-22T06:04:06.875Z,145
2017-04-22T06:06:26.752Z,165
2017-04-22T06:07:08.130Z,175
2017-04-22T06:07:49.446Z,240
2017-04-22T06:08:30.774Z,195
2017-04-22T06:09:12.192Z,170
2017-04-22T06:09:53.497Z,175
2017-04-22T06:10:34.788Z,230
2017-04-22T06:11:16.077Z,195
2017-04-22T06:11:57.363Z,165
2017-04-22T06:12:38.661Z,160
2017-04-22T06:13:19.936Z,175
2017-04-22T06:14:01.270Z,185
2017-04-22T06:14:42.599Z,165
2017-04-22T06:15:23.946Z,210
2017-04-22T06:16:05.317Z,230
2017-04-22T06:16:46.654Z,165
2017-04-22T06:17:27.955Z,170
2017-04-22T06:18:09.313Z,210
2017-04-22T06:18:50.639Z,235
2017-04-22T06:19:31.928Z,290
2017-04-22T06:20:13.205Z,270
2017-04-22T06:20:54.458Z,200
2017-04-22T06:21:35.697Z,220
2017-04-22T06:22:16.935Z,235
2017-04-22T06:22:58.190Z,250
2017-04-22T06:23:39.463Z,250
2017-04-22T06:24:20.717Z,275
2017-04-22T06:25:01.995Z,320
2017-04-22T06:25:43.216Z,260
2017-04-22T06:26:24.489Z,220
2017-04-22T06:27:05.729Z,215
2017-04-22T06:27:46.980Z,255
2017-04-22T06:28:28.236Z,210
2017-04-22T06:29:09.485Z,265
2017-04-22T06:29:50.741Z,305
2017-04-22T06:30:32.045Z,260
2017-04-22T06:31:13.366Z,215
2017-04-22T06:31:54.520Z,215
2017-04-22T06:32:35.572Z,205
2017-04-22T06:33:16.597Z,205
2017-04-22T06:33:57.672Z,215
2017-04-22T06:34:38.759Z,245
2017-04-22T06:35:19.906Z,270
2017-04-22T06:36:00.930Z,260
2017-04-22T06:36:42.020Z,240
2017-04-22T06:37:23.009Z,275
2017-04-22T06:38:04.008Z,290
2017-04-22T06:38:45.028Z,270
2017-04-22T06:39:26.107Z,240
2017-04-22T06:40:07.146Z,245
2017-04-22T06:40:48.180Z,280
2017-04-22T06:41:29.228Z,285
2017-04-22T06:42:10.162Z,275
2017-04-22T06:42:51.158Z,275
2017-04-22T06:43:32.166Z,265
2017-04-22T06:44:13.117Z,255
2017-04-22T06:44:54.140Z,225
2017-04-22T06:45:35.017Z,220
2017-04-22T06:46:15.955Z,250
2017-04-22T06:46:56.808Z,255
2017-04-22T06:47:37.690Z,215
2017-04-22T06:48:18.559Z,210
2017-04-22T06:48:59.692Z,225
2017-04-22T06:51:08.883Z,160
2017-04-22T06:51:49.897Z,115
2017-04-22T06:52:30.923Z,115
2017-04-22T06:53:11.803Z,135
2017-04-22T06:53:52.667Z,175
2017-04-22T06:54:33.544Z,235
2017-04-22T06:55:14.414Z,280
2017-04-22T06:55:55.287Z,325
2017-04-22T06:56:36.154Z,360
2017-04-22T06:57:17.074Z,365
2017-04-22T06:57:57.940Z,335
2017-04-22T06:58:38.817Z,290
2017-04-22T06:59:19.755Z,305
2017-04-22T07:00:00.630Z,355
2017-04-22T07:00:41.526Z,430
2017-04-22T07:01:22.406Z,365
2017-04-22T07:02:03.281Z,305
2017-04-22T07:02:44.149Z,320
2017-04-22T07:03:25.021Z,300
2017-04-22T07:04:05.890Z,260
2017-04-22T07:04:46.772Z,215
2017-04-22T07:05:27.657Z,225
2017-04-22T07:06:08.530Z,250
2017-04-22T07:06:49.396Z,185
2017-04-22T07:07:30.264Z,155
2017-04-22T07:08:11.143Z,160
2017-04-22T07:08:52.029Z,155
2017-04-22T07:09:32.903Z,185
2017-04-22T07:10:13.867Z,185
2017-04-22T07:10:54.744Z,165
2017-04-22T07:11:35.623Z,165
2017-04-22T07:12:16.509Z,205
2017-04-22T07:12:57.393Z,265
2017-04-22T07:13:38.270Z,305
2017-04-22T07:14:19.140Z,300
2017-04-22T07:15:00.022Z,265
2017-04-22T07:15:40.901Z,285
2017-04-22T07:16:21.767Z,330
2017-04-22T07:17:02.661Z,340
2017-04-22T07:17:43.547Z,320
2017-04-22T07:18:24.422Z,315
2017-04-22T07:19:05.385Z,310
2017-04-22T07:19:46.261Z,280
2017-04-22T07:20:27.138Z,320
2017-04-22T07:21:08.014Z,385
2017-04-22T07:21:48.890Z,440
2017-04-22T07:22:29.801Z,480
2017-04-22T07:23:10.677Z,420
2017-04-22T07:23:51.554Z,340
2017-04-22T07:24:32.431Z,300
2017-04-22T07:25:13.297Z,285
2017-04-22T07:25:54.183Z,225
2017-04-22T07:26:35.063Z,170
2017-04-22T07:27:16.904Z,175
2017-04-22T07:27:57.794Z,170
2017-04-22T07:28:38.693Z,185
2017-04-22T07:29:19.596Z,250
2017-04-22T07:30:00.479Z,285
2017-04-22T07:30:41.362Z,330
2017-04-22T07:31:22.233Z,365
2017-04-22T07:32:03.247Z,340
2017-04-22T07:32:44.036Z,270
2017-04-22T07:33:25.074Z,210
2017-04-22T07:34:06.128Z,200
2017-04-22T07:36:20.902Z,305
2017-04-22T07:37:01.834Z,305
2017-04-22T07:37:42.716Z,350
2017-04-22T07:38:23.812Z,405
2017-04-22T07:39:04.786Z,475
2017-04-22T07:39:45.666Z,660
2017-04-22T07:40:26.559Z,685
2017-04-22T07:41:07.418Z,610
2017-04-22T07:41:50.179Z,475
2017-04-22T07:42:31.061Z,485
2017-04-22T07:43:11.932Z,700
2017-04-22T07:43:52.800Z,550
2017-04-22T07:44:33.679Z,465
2017-04-22T07:45:14.561Z,415
2017-04-22T07:45:55.442Z,320
2017-04-22T07:46:36.321Z,245
2017-04-22T07:47:17.203Z,195
2017-04-22T07:49:26.941Z,185
2017-04-22T07:50:07.831Z,185
2017-04-22T07:50:48.812Z,190
2017-04-22T07:51:29.652Z,210
2017-04-22T07:52:10.542Z,220
2017-04-22T07:52:51.446Z,230
2017-04-22T07:53:32.340Z,260
2017-04-22T07:54:13.194Z,305
2017-04-22T07:54:54.094Z,380
2017-04-22T07:55:34.996Z,450
2017-04-22T07:56:15.885Z,615
2017-04-22T07:56:56.762Z,485
2017-04-22T07:57:41.158Z,460
2017-04-22T07:58:22.054Z,470
2017-04-22T07:59:02.924Z,415
2017-04-22T07:59:43.788Z,375
2017-04-22T08:00:24.661Z,350
2017-04-22T08:01:05.540Z,315
2017-04-22T08:01:46.418Z,290
2017-04-22T08:02:27.390Z,300
2017-04-22T08:05:43.507Z,285
2017-04-22T08:06:24.389Z,320
2017-04-22T08:07:05.265Z,375
2017-04-22T08:07:46.145Z,415
2017-04-22T08:08:27.023Z,425
2017-04-22T08:09:07.921Z,430
2017-04-22T08:09:48.788Z,445
2017-04-22T08:10:29.670Z,480
2017-04-22T08:11:10.618Z,485
2017-04-22T08:11:51.433Z,570
2017-04-22T08:12:32.323Z,495
2017-04-22T08:13:13.246Z,480
2017-04-22T08:13:54.118Z,420
2017-04-22T08:14:35.080Z,410
2017-04-22T08:15:16.099Z,435
2017-04-22T08:15:56.992Z,410
2017-04-22T08:16:37.863Z,370
2017-04-22T08:17:18.718Z,375
2017-04-22T08:17:59.585Z,375
2017-04-22T08:18:40.450Z,305
2017-04-22T08:19:21.318Z,230
2017-04-22T08:20:02.187Z,190
2017-04-22T08:20:43.070Z,180
2017-04-22T08:21:23.949Z,175
2017-04-22T08:22:04.831Z,160
2017-04-22T08:22:45.706Z,145
2017-04-22T08:23:26.583Z,130
2017-04-22T08:24:07.461Z,120
2017-04-22T08:24:48.375Z,125
2017-04-22T08:25:29.287Z,145
2017-04-22T08:26:10.178Z,150
2017-04-22T08:28:40.493Z,120
2017-04-22T08:29:22.375Z,120
2017-04-22T08:30:05.124Z,130
2017-04-22T08:30:45.985Z,150
2017-04-22T08:31:26.866Z,165
2017-04-22T08:32:07.749Z,165
2017-04-22T08:32:50.463Z,160
2017-04-22T08:33:33.132Z,135
2017-04-22T08:34:17.464Z,140
2017-04-22T08:34:58.348Z,135
2017-04-22T08:35:39.220Z,160
2017-04-22T08:36:21.979Z,160
2017-04-22T08:37:02.865Z,155
2017-04-22T08:37:43.744Z,140
2017-04-22T08:38:24.615Z,130
2017-04-22T08:39:05.492Z,115
2017-04-22T08:39:46.370Z,100
2017-04-22T08:40:27.249Z,90
2017-04-22T08:41:11.605Z,90
2017-04-22T08:41:52.479Z,90
2017-04-22T08:42:33.361Z,80
2017-04-22T08:43:14.235Z,90
2017-04-22T08:43:55.126Z,95
2017-04-22T08:44:35.989Z,120
2017-04-22T08:45:16.865Z,140
2017-04-22T08:45:57.744Z,135
2017-04-22T08:46:38.619Z,135
2017-04-22T08:47:19.499Z,120
2017-04-22T08:48:00.379Z,100
2017-04-22T08:48:43.106Z,90
2017-04-22T08:49:24.007Z,100
2017-04-22T08:51:22.778Z,135
2017-04-22T08:52:03.674Z,130
2017-04-22T08:52:44.546Z,115
2017-04-22T08:53:25.424Z,100
2017-04-22T08:54:06.286Z,95
2017-04-22T08:54:47.163Z,100
2017-04-22T08:55:28.031Z,100
2017-04-22T08:56:08.916Z,105
2017-04-22T08:56:49.791Z,110
2017-04-22T08:57:30.674Z,130
2017-04-22T08:58:11.540Z,145
2017-04-22T08:58:52.417Z,160
2017-04-22T08:59:33.291Z,190
2017-04-22T09:00:14.251Z,205
2017-04-22T09:00:55.253Z,220
2017-04-22T09:01:36.193Z,220
2017-04-22T09:02:17.050Z,255
2017-04-22T09:02:57.930Z,300
2017-04-22T09:03:38.806Z,425
2017-04-22T09:04:19.670Z,455
2017-04-22T09:05:00.547Z,465
2017-04-22T09:05:41.448Z,450
2017-04-22T09:06:22.346Z,585
2017-04-22T09:07:03.249Z,770
2017-04-22T09:07:44.128Z,660
2017-04-22T09:08:25.008Z,730
2017-04-22T09:09:05.893Z,745
2017-04-22T09:09:46.756Z,775
2017-04-22T09:10:27.622Z,505
2017-04-22T09:11:08.506Z,350
2017-04-22T09:11:49.375Z,265
2017-04-22T09:12:30.261Z,230
2017-04-22T09:13:11.147Z,195
2017-04-22T09:13:52.051Z,160
2017-04-22T09:16:06.334Z,105
2017-04-22T09:16:47.200Z,145
2017-04-22T09:17:28.072Z,205
2017-04-22T09:18:08.951Z,220
2017-04-22T09:18:49.826Z,240
2017-04-22T09:19:30.704Z,310
2017-04-22T09:20:11.634Z,405
2017-04-22T09:20:52.524Z,420
2017-04-22T09:21:33.425Z,340
2017-04-22T09:22:14.296Z,255
2017-04-22T09:22:55.176Z,215
2017-04-22T09:23:36.078Z,190
2017-04-22T09:24:16.892Z,170
2017-04-22T09:24:57.760Z,160
2017-04-22T09:25:38.629Z,155
2017-04-22T09:26:19.516Z,145
2017-04-22T09:27:00.486Z,150
2017-04-22T09:27:41.928Z,160
2017-04-22T09:28:22.827Z,155
2017-04-22T09:29:03.681Z,145
2017-04-22T09:29:44.575Z,125
2017-04-22T09:30:25.437Z,115
2017-04-22T09:31:06.322Z,100
2017-04-22T09:31:47.186Z,95
2017-04-22T09:32:28.068Z,90
2017-04-22T09:33:08.962Z,85
2017-04-22T09:33:49.833Z,75
2017-04-22T09:34:30.710Z,70
2017-04-22T09:35:11.583Z,75
2017-04-22T09:35:52.461Z,85
2017-04-22T09:36:33.382Z,90
2017-04-22T09:37:15.348Z,100
2017-04-22T09:37:57.231Z,120
2017-04-22T09:38:38.107Z,135
2017-04-22T09:39:18.986Z,180
2017-04-22T09:39:59.862Z,205
2017-04-22T09:40:40.832Z,205
2017-04-22T09:41:21.712Z,195
2017-04-22T09:42:02.583Z,190
2017-04-22T09:42:43.455Z,185
2017-04-22T09:43:24.338Z,180
2017-04-22T09:44:05.216Z,190
2017-04-22T09:44:46.104Z,200
2017-04-22T09:45:26.989Z,190
2017-04-22T09:46:07.866Z,200
2017-04-22T09:46:48.746Z,195
2017-04-22T09:47:29.626Z,200
2017-04-22T09:48:10.500Z,235
2017-04-22T09:48:51.377Z,235
2017-04-22T09:49:32.244Z,240
2017-04-22T09:50:13.105Z,310
2017-04-22T09:50:53.979Z,380
2017-04-22T09:51:34.907Z,480
2017-04-22T09:52:15.747Z,485
2017-04-22T09:52:56.626Z,615
2017-04-22T09:53:37.510Z,3150
2017-04-22T09:54:18.381Z,3245
2017-04-22T09:54:59.243Z,3265
2017-04-22T09:55:40.136Z,3250
2017-04-22T09:56:21.022Z,3200
2017-04-22T09:57:01.890Z,1330
2017-04-22T09:57:42.758Z,2930
2017-04-22T09:58:23.637Z,3045
2017-04-22T09:59:04.598Z,3045
2017-04-22T09:59:45.490Z,3055
2017-04-22T10:00:26.366Z,910
2017-04-22T10:01:07.280Z,595
2017-04-22T10:01:48.141Z,980
2017-04-22T10:02:29.030Z,660
2017-04-22T10:03:09.936Z,2755
2017-04-22T10:03:50.821Z,1095
2017-04-22T10:04:31.698Z,485
2017-04-22T10:05:12.581Z,450
2017-04-22T10:05:53.471Z,410
2017-04-22T10:06:34.369Z,345
2017-04-22T10:07:15.253Z,275
2017-04-22T10:07:56.136Z,215
2017-04-22T10:08:37.016Z,175
2017-04-22T10:09:17.915Z,145
2017-04-22T10:09:58.798Z,135
2017-04-22T10:10:39.682Z,130
2017-04-22T10:11:20.567Z,135
2017-04-22T10:12:01.452Z,145
2017-04-22T10:12:42.334Z,170
2017-04-22T10:13:23.214Z,175
2017-04-22T10:14:04.091Z,200
2017-04-22T10:14:45.203Z,235
2017-04-22T10:15:26.080Z,205
2017-04-22T10:16:06.951Z,230
2017-04-22T10:16:47.835Z,2575
2017-04-22T10:17:28.731Z,2065
2017-04-22T10:18:09.593Z,950
2017-04-22T10:18:50.459Z,710
2017-04-22T10:19:31.315Z,530
2017-04-22T10:20:12.193Z,405
2017-04-22T10:20:53.077Z,425
2017-04-22T10:21:33.944Z,575
2017-04-22T10:22:15.276Z,640